Time;durP1;ratioP1;P1;durP2;ratioP2;P2;SDS_P1;SDS_P2;PMS_P1;PMS_P2;Temp;Humidity;BMP_temperature;BMP_pressure;BME280_temperature;BME280_humidity;BME280_pressure;Samples;Min_cycle;Max_cycle;Signal;HPM_P1;HPM_P2
2023/10/08 00:01:50;;;;;;;10.63;5.00;;;;;;;14.84;100.00;102267.59;5023740;28;20108;-76
2023/10/08 00:04:18;;;;;;;7.72;4.40;;;;;;;14.79;100.00;102269.47;5031252;28;20370;-77
2023/10/08 00:06:47;;;;;;;6.85;4.10;;;;;;;14.73;100.00;102270.44;5022315;28;20071;-76
2023/10/08 00:09:14;;;;;;;7.88;4.45;;;;;;;14.68;100.00;102278.41;5040662;28;20053;-76
2023/10/08 00:11:40;;;;;;;7.75;4.72;;;;;;;14.67;100.00;102286.28;5023940;28;20025;-76
2023/10/08 00:14:10;;;;;;;8.15;4.55;;;;;;;14.59;100.00;102283.81;5041942;28;20017;-76
2023/10/08 00:16:39;;;;;;;10.38;4.60;;;;;;;14.52;100.00;102280.41;5025630;28;20361;-76
2023/10/08 00:19:08;;;;;;;10.35;4.50;;;;;;;14.46;100.00;102285.72;5041823;28;20022;-76
2023/10/08 00:21:38;;;;;;;8.90;4.72;;;;;;;14.37;100.00;102285.88;5026773;28;20038;-76
2023/10/08 00:24:06;;;;;;;9.23;4.70;;;;;;;14.31;100.00;102298.22;5043410;28;20049;-76
2023/10/08 00:26:34;;;;;;;8.40;4.85;;;;;;;14.23;100.00;102288.72;5092788;28;20069;-76
2023/10/08 00:29:24;;;;;;;8.57;4.95;;;;;;;14.18;100.00;102292.31;5043148;28;20441;-77
2023/10/08 00:31:49;;;;;;;12.98;4.95;;;;;;;14.14;100.00;102301.97;5055859;28;20404;-76
2023/10/08 00:34:16;;;;;;;9.80;5.55;;;;;;;14.09;100.00;102302.94;5028291;28;20025;-76
2023/10/08 00:36:45;;;;;;;11.82;4.50;;;;;;;14.01;100.00;102292.56;5050020;28;20026;-76
2023/10/08 00:39:16;;;;;;;10.60;5.03;;;;;;;13.98;100.00;102303.09;5023978;28;20030;-76
2023/10/08 00:41:43;;;;;;;12.55;4.90;;;;;;;13.96;100.00;102297.00;5051920;28;20035;-76
2023/10/08 00:44:13;;;;;;;13.57;5.43;;;;;;;13.90;100.00;102286.63;5035002;28;20449;-76
2023/10/08 00:46:47;;;;;;;9.15;5.30;;;;;;;13.90;100.00;102297.09;5022805;28;20041;-76
2023/10/08 00:52:00;;;;;;;9.10;5.20;;;;;;;13.81;100.00;102312.06;5024302;28;20128;-76
2023/10/08 00:54:32;;;;;;;10.95;5.07;;;;;;;13.78;100.00;102312.09;5018388;28;20112;-77
2023/10/08 00:57:03;;;;;;;12.82;5.53;;;;;;;13.69;100.00;102317.47;5024498;28;20089;-76
2023/10/08 00:59:33;;;;;;;9.77;5.03;;;;;;;13.69;100.00;102311.34;5018981;28;20030;-76
2023/10/08 01:01:59;;;;;;;10.95;5.65;;;;;;;13.63;100.00;102312.28;5022960;28;20051;-76
2023/10/08 01:04:34;;;;;;;10.68;5.70;;;;;;;13.58;100.00;102316.75;5042194;28;20021;-76
2023/10/08 01:07:10;;;;;;;13.13;6.03;;;;;;;13.54;100.00;102310.69;5022637;28;20109;-76
2023/10/08 01:09:37;;;;;;;13.27;5.47;;;;;;;13.53;100.00;102308.91;5043084;28;20035;-76
2023/10/08 01:12:16;;;;;;;10.38;5.40;;;;;;;13.47;100.00;102295.03;5023247;28;20440;-76
2023/10/08 01:14:42;;;;;;;9.30;5.95;;;;;;;13.41;100.00;102298.63;5043501;28;20060;-76
2023/10/08 01:17:16;;;;;;;8.50;5.47;;;;;;;13.42;100.00;102291.63;5023212;28;20025;-76
2023/10/08 01:19:53;;;;;;;9.25;5.78;;;;;;;13.40;100.00;102293.38;5046046;28;20030;-76
2023/10/08 01:22:21;;;;;;;10.25;5.43;;;;;;;13.30;100.00;102290.84;5023893;28;20026;-76
2023/10/08 01:24:49;;;;;;;12.63;5.30;;;;;;;13.34;100.00;102300.44;5048089;28;20033;-76
2023/10/08 01:27:21;;;;;;;11.82;6.00;;;;;;;13.31;100.00;102291.75;5023054;28;20033;-76
2023/10/08 01:29:50;;;;;;;10.10;5.75;;;;;;;13.33;100.00;102300.44;5050698;28;20052;-76
2023/10/08 01:32:17;;;;;;;13.43;6.05;;;;;;;13.33;100.00;102289.97;5021902;28;20112;-76
2023/10/08 01:34:45;;;;;;;12.23;5.93;;;;;;;13.30;100.00;102280.38;5019669;28;20049;-76
2023/10/08 01:37:16;;;;;;;10.32;6.00;;;;;;;13.32;100.00;102283.88;5022570;28;20101;-76
2023/10/08 01:39:45;;;;;;;8.85;5.60;;;;;;;13.26;100.00;102262.13;5021513;28;20083;-76
2023/10/08 01:42:17;;;;;;;9.50;5.93;;;;;;;13.31;100.00;102278.66;5009091;28;20085;-76
2023/10/08 01:44:48;;;;;;;11.15;5.95;;;;;;;13.24;100.00;102267.38;5033222;28;20098;-76
2023/10/08 01:47:17;;;;;;;11.02;5.90;;;;;;;13.31;100.00;102270.81;5047094;28;20585;-76
2023/10/08 01:49:49;;;;;;;11.23;5.85;;;;;;;13.33;100.00;102285.59;5027925;28;20065;-76
2023/10/08 01:52:21;;;;;;;11.85;6.30;;;;;;;13.37;100.00;102280.31;5049961;28;20026;-76
2023/10/08 01:54:49;;;;;;;12.13;5.70;;;;;;;13.40;100.00;102291.63;5035602;28;20489;-76
2023/10/08 01:57:16;;;;;;;12.25;5.68;;;;;;;13.42;100.00;102283.75;5018265;28;20026;-76
2023/10/08 01:59:44;;;;;;;12.27;5.90;;;;;;;13.47;100.00;102289.78;5036381;28;20037;-76
2023/10/08 02:02:09;;;;;;;9.20;6.20;;;;;;;13.48;100.00;102297.66;5019442;28;20029;-76
2023/10/08 02:04:35;;;;;;;10.38;6.15;;;;;;;13.50;100.00;102302.84;5036530;28;20472;-76
2023/10/08 02:07:07;;;;;;;10.98;5.47;;;;;;;13.52;100.00;102309.81;5014909;28;20030;-76
2023/10/08 02:09:34;;;;;;;8.75;5.00;;;;;;;13.51;100.00;102304.59;5040556;28;20109;-76
2023/10/08 02:11:59;;;;;;;9.98;5.32;;;;;;;13.53;100.00;102315.91;5025456;28;20029;-76
2023/10/08 02:14:24;;;;;;;11.02;5.40;;;;;;;13.53;100.00;102305.44;5039785;28;20125;-76
2023/10/08 02:16:55;;;;;;;11.48;5.63;;;;;;;13.55;100.00;102308.91;5027284;28;20113;-76
2023/10/08 02:19:26;;;;;;;13.25;6.22;;;;;;;13.54;100.00;102304.56;5040170;28;20037;-76
2023/10/08 02:21:54;;;;;;;14.77;5.97;;;;;;;13.53;100.00;102306.28;5006541;28;20025;-76
2023/10/08 02:24:21;;;;;;;14.80;6.75;;;;;;;13.55;100.00;102306.28;5042043;28;20390;-76
2023/10/08 02:26:46;;;;;;;10.18;5.78;;;;;;;13.55;100.00;102301.06;5027225;28;20046;-76
2023/10/08 02:29:12;;;;;;;10.82;6.32;;;;;;;13.55;100.00;102311.53;5045048;28;20107;-76
2023/10/08 02:31:40;;;;;;;9.50;5.40;;;;;;;13.53;100.00;102305.44;5025929;28;20022;-76
2023/10/08 02:34:09;;;;;;;13.15;6.15;;;;;;;13.53;100.00;102303.69;5044112;28;20031;-76
2023/10/08 02:36:40;;;;;;;11.82;6.30;;;;;;;13.51;100.00;102299.38;5028192;28;20030;-77
2023/10/08 02:39:28;;;;;;;12.10;6.15;;;;;;;13.55;100.00;102308.91;5027055;28;20076;-77
2023/10/08 02:41:56;;;;;;;10.48;5.60;;;;;;;13.52;100.00;102307.19;5031347;28;20065;-77
2023/10/08 02:44:22;;;;;;;11.63;6.05;;;;;;;13.52;100.00;102307.19;5022070;28;20025;-77
2023/10/08 02:46:49;;;;;;;12.38;5.82;;;;;;;13.54;100.00;102313.28;5033859;28;20372;-77
2023/10/08 02:49:22;;;;;;;16.20;6.20;;;;;;;13.53;100.00;102323.78;5021769;28;20409;-76
2023/10/08 02:51:58;;;;;;;;;;;;;;;13.57;100.00;102325.50;5036685;28;20033;-76
2023/10/08 02:54:31;;;;;;;8.48;5.13;;;;;;;13.52;100.00;102329.91;5004949;28;19999;-76
2023/10/08 02:57:00;;;;;;;10.25;5.10;;;;;;;13.50;100.00;102323.81;5036223;28;20022;-77
2023/10/08 02:59:45;;;;;;;10.50;5.90;;;;;;;13.52;100.00;102324.66;5023688;28;20033;-77
2023/10/08 03:02:21;;;;;;;11.07;5.43;;;;;;;13.50;100.00;102323.81;5040141;28;20026;-76
2023/10/08 03:04:48;;;;;;;9.40;5.10;;;;;;;13.49;100.00;102327.31;5028667;28;20109;-76
2023/10/08 03:07:32;;;;;;;15.15;6.18;;;;;;;13.49;100.00;102322.09;5040131;28;20037;-76
2023/10/08 03:10:06;;;;;;;11.57;5.45;;;;;;;13.48;100.00;102329.09;5028757;28;20033;-76
2023/10/08 03:12:32;;;;;;;9.23;5.28;;;;;;;13.46;100.00;102317.75;5042033;28;20508;-76
2023/10/08 03:15:01;;;;;;;9.85;5.35;;;;;;;13.50;100.00;102323.81;5028921;28;20033;-76
2023/10/08 03:17:30;;;;;;;10.57;5.10;;;;;;;13.48;100.00;102322.97;5043149;28;20037;-76
2023/10/08 03:20:27;;;;;;;12.32;5.65;;;;;;;13.49;100.00;102335.19;5030198;28;20025;-76
2023/10/08 03:22:45;;;;;;;12.35;5.25;;;;;;;13.44;100.00;102332.63;5042723;28;20038;-77
2023/10/08 03:25:16;;;;;;;11.32;5.30;;;;;;;13.50;100.00;102336.91;5030898;28;20033;-76
2023/10/08 03:27:42;;;;;;;12.45;5.72;;;;;;;13.49;100.00;102343.91;5043828;28;20053;-76
2023/10/08 03:30:14;;;;;;;9.63;5.50;;;;;;;13.51;100.00;102344.78;5031298;28;20025;-77
2023/10/08 03:32:41;;;;;;;10.98;5.50;;;;;;;13.49;100.00;102343.91;5045691;28;20507;-77
2023/10/08 03:35:10;;;;;;;11.50;5.53;;;;;;;13.49;100.00;102340.44;5031855;28;20075;-76
2023/10/08 03:37:41;;;;;;;12.63;5.50;;;;;;;13.47;100.00;102347.44;5029939;28;20034;-77
2023/10/08 03:40:24;;;;;;;9.93;5.13;;;;;;;13.46;100.00;102345.69;5006515;28;20050;-76
2023/10/08 03:42:49;;;;;;;10.80;5.65;;;;;;;13.48;100.00;102342.19;5040152;28;20041;-76
2023/10/08 03:45:22;;;;;;;11.25;5.47;;;;;;;13.47;100.00;102344.81;5021541;28;20026;-76
2023/10/08 03:48:02;;;;;;;11.73;6.03;;;;;;;13.46;100.00;102357.03;5040289;28;20026;-76
2023/10/08 03:50:32;;;;;;;11.82;5.10;;;;;;;13.45;100.00;102346.59;5015623;28;20034;-76
2023/10/08 03:52:58;;;;;;;12.07;5.63;;;;;;;13.39;100.00;102338.81;5042634;28;20037;-76
2023/10/08 03:55:26;;;;;;;12.93;5.80;;;;;;;13.41;100.00;102342.28;5023103;28;20026;-76
2023/10/08 03:57:58;;;;;;;11.52;5.20;;;;;;;13.42;100.00;102338.78;5040499;28;20030;-77
2023/10/08 04:00:31;;;;;;;10.45;5.35;;;;;;;13.40;100.00;102338.78;5024881;28;20033;-76
2023/10/08 04:03:01;;;;;;;11.63;5.53;;;;;;;13.41;100.00;102344.91;5041652;28;20037;-76
2023/10/08 04:05:43;;;;;;;11.95;4.95;;;;;;;13.43;100.00;102343.97;5025992;28;20030;-76
2023/10/08 04:08:24;;;;;;;9.52;5.03;;;;;;;13.41;100.00;102345.75;5043170;28;20025;-76
2023/10/08 04:11:07;;;;;;;13.70;5.78;;;;;;;13.41;100.00;102334.44;5015466;28;20021;-76
2023/10/08 04:13:33;;;;;;;10.52;5.90;;;;;;;13.38;100.00;102335.31;5047921;28;20022;-77
2023/10/08 04:15:59;;;;;;;11.52;6.32;;;;;;;13.38;100.00;102355.41;5023501;28;20085;-76
2023/10/08 04:18:24;;;;;;;11.88;5.85;;;;;;;13.35;100.00;102341.47;5045474;28;20026;-76
2023/10/08 04:21:00;;;;;;;11.63;5.70;;;;;;;13.35;100.00;102351.94;5026456;28;20025;-76
2023/10/08 04:23:26;;;;;;;13.00;5.88;;;;;;;13.32;100.00;102359.81;5045593;28;20049;-76
2023/10/08 04:25:54;;;;;;;12.30;6.25;;;;;;;13.30;100.00;102358.97;5018801;28;20516;-76
2023/10/08 04:28:20;;;;;;;11.40;5.78;;;;;;;13.24;100.00;102356.44;5045987;28;20040;-76
2023/10/08 04:30:47;;;;;;;10.82;6.25;;;;;;;13.28;100.00;102381.69;5029906;28;20030;-76
2023/10/08 04:33:14;;;;;;;10.70;5.43;;;;;;;13.22;100.00;102371.25;5047065;28;20170;-76
2023/10/08 04:35:48;;;;;;;14.07;5.93;;;;;;;13.20;100.00;102374.75;5031948;28;20112;-76
2023/10/08 04:38:19;;;;;;;14.05;5.60;;;;;;;13.15;100.00;102366.97;5033282;28;20029;-76
2023/10/08 04:40:48;;;;;;;11.05;5.82;;;;;;;13.08;100.00;102362.66;5031607;28;20502;-76
2023/10/08 04:43:27;;;;;;;12.00;5.80;;;;;;;13.03;100.00;102362.69;5034377;27;20053;-76
2023/10/08 04:45:56;;;;;;;11.18;5.65;;;;;;;12.95;100.00;102361.03;5027795;28;20065;-76
2023/10/08 04:48:23;;;;;;;13.95;6.05;;;;;;;12.92;100.00;102366.31;5033422;28;20108;-76
2023/10/08 04:50:58;;;;;;;10.65;6.40;;;;;;;12.88;100.00;102382.03;5025350;28;20051;-76
2023/10/08 04:53:36;;;;;;;11.57;5.90;;;;;;;12.85;100.00;102384.69;5020026;28;20033;-77
2023/10/08 04:56:13;;;;;;;16.73;6.00;;;;;;;12.80;100.00;102389.06;5028302;28;20034;-76
2023/10/08 04:58:41;;;;;;;10.77;5.88;;;;;;;12.74;100.00;102385.63;5051835;28;20086;-76
2023/10/08 05:01:17;;;;;;;10.70;5.95;;;;;;;12.70;100.00;102382.19;5053792;28;20026;-76
2023/10/08 05:14:55;;;;;;;11.65;6.07;;;;;;;12.63;100.00;102396.19;5043385;28;20079;-76
2023/10/08 05:17:21;;;;;;;11.52;6.28;;;;;;;12.65;100.00;102391.81;5021829;28;20520;-76
2023/10/08 05:19:48;;;;;;;12.55;6.50;;;;;;;12.65;100.00;102405.78;5039835;28;20030;-76
2023/10/08 05:25:40;;;;;;;15.60;6.30;;;;;;;12.70;100.00;102403.13;5040210;28;20049;-76
2023/10/08 05:30:37;;;;;;;13.30;6.68;;;;;;;12.60;100.00;102396.22;5040346;28;20472;-76
2023/10/08 05:38:16;;;;;;;12.93;6.65;;;;;;;12.67;100.00;102421.44;5018837;28;20040;-76
2023/10/08 05:46:39;;;;;;;14.23;7.00;;;;;;;12.69;100.00;102438.03;5046943;28;20122;-76
2023/10/08 06:13:13;;;;;;;12.52;6.78;;;;;;;12.56;100.00;102384.03;5023181;28;20033;-76
2023/10/08 06:18:26;;;;;;;16.98;7.07;;;;;;;12.53;100.00;102391.91;5034323;28;20040;-76
2023/10/08 06:20:55;;;;;;;14.27;7.07;;;;;;;12.50;100.00;102387.56;5024310;28;20030;-76
2023/10/08 06:23:23;;;;;;;12.88;6.63;;;;;;;12.48;100.00;102391.06;5030161;28;20026;-76
2023/10/08 06:26:05;;;;;;;13.50;7.03;;;;;;;12.51;100.00;102398.88;5031976;28;20053;-76
2023/10/08 06:28:34;;;;;;;17.08;6.82;;;;;;;12.51;100.00;102402.38;5034462;28;20400;-76
2023/10/08 06:31:01;;;;;;;11.30;6.70;;;;;;;12.50;100.00;102405.00;5028033;28;20083;-76
2023/10/08 06:33:30;;;;;;;12.70;6.47;;;;;;;12.54;100.00;102411.94;5027980;28;20033;-76
2023/10/08 06:36:02;;;;;;;15.35;7.13;;;;;;;12.56;100.00;102432.00;5040335;28;20033;-76
2023/10/08 06:38:30;;;;;;;14.07;6.95;;;;;;;12.59;100.00;102431.13;5026791;28;20350;-76
2023/10/08 06:40:59;;;;;;;12.55;7.13;;;;;;;12.56;100.00;102411.06;5057795;28;20038;-76
2023/10/08 06:43:28;;;;;;;13.90;7.10;;;;;;;12.57;100.00;102420.66;5038861;27;20029;-76
2023/10/08 06:45:58;;;;;;;12.10;6.63;;;;;;;12.59;100.00;102423.28;5042889;28;20046;-76
2023/10/08 06:48:24;;;;;;;14.75;6.45;;;;;;;12.55;100.00;102416.28;5044750;28;20061;-76
2023/10/08 06:50:56;;;;;;;12.13;7.25;;;;;;;12.57;100.00;102422.41;5036394;28;20034;-76
2023/10/08 06:53:22;;;;;;;14.27;8.32;;;;;;;12.59;100.00;102421.50;5050043;28;20030;-76
2023/10/08 06:55:48;;;;;;;13.90;7.70;;;;;;;12.58;100.00;102426.75;5031431;28;20029;-76
2023/10/08 06:58:14;;;;;;;15.07;7.47;;;;;;;12.58;100.00;102424.13;5061427;28;20065;-76
2023/10/08 07:00:46;;;;;;;12.95;7.78;;;;;;;12.61;100.00;102429.34;5020829;28;20495;-76
2023/10/08 07:03:15;;;;;;;11.98;7.05;;;;;;;12.64;100.00;102440.66;5040507;28;20027;-76
2023/10/08 07:05:44;;;;;;;15.27;7.53;;;;;;;12.66;100.00;102438.03;5015935;28;20054;-76
2023/10/08 07:08:13;;;;;;;13.10;7.60;;;;;;;12.76;100.00;102449.31;5035842;28;20135;-76
2023/10/08 07:10:40;;;;;;;17.17;8.55;;;;;;;12.80;100.00;102449.28;5026925;28;20126;-76
2023/10/08 07:13:07;;;;;;;13.25;7.80;;;;;;;12.88;100.00;102449.19;5029172;28;20033;-76
2023/10/08 07:15:38;;;;;;;12.98;8.05;;;;;;;12.92;100.00;102439.59;5035856;27;20033;-76
2023/10/08 07:18:09;;;;;;;16.60;8.50;;;;;;;13.01;100.00;102450.84;5026447;28;20021;-76
2023/10/08 07:20:38;;;;;;;13.38;7.95;;;;;;;13.06;100.00;102459.53;5020788;28;20102;-76
2023/10/08 07:23:09;;;;;;;16.20;8.90;;;;;;;13.10;100.00;102450.78;5025716;28;20154;-76
2023/10/08 07:25:38;;;;;;;13.40;8.35;;;;;;;13.20;100.00;102455.94;5042824;28;20043;-77
2023/10/08 07:28:12;;;;;;;15.43;8.77;;;;;;;13.24;100.00;102458.56;5023984;28;20037;-76
2023/10/08 07:30:43;;;;;;;15.75;8.85;;;;;;;13.29;100.00;102464.63;5045197;28;20129;-76
2023/10/08 07:33:17;;;;;;;18.20;9.60;;;;;;;13.41;100.00;102468.88;5025012;28;20361;-76
2023/10/08 07:35:54;;;;;;;18.00;9.23;;;;;;;13.49;100.00;102464.44;5046371;28;20045;-76
2023/10/08 07:38:21;;;;;;;15.45;9.38;;;;;;;13.55;100.00;102467.00;5025839;28;20028;-76
2023/10/08 07:40:46;;;;;;;15.80;9.40;;;;;;;13.61;100.00;102471.31;5054127;28;20033;-76
2023/10/08 07:43:12;;;;;;;23.13;9.95;;;;;;;13.71;100.00;102482.56;5046982;28;20026;-76
2023/10/08 07:45:38;;;;;;;20.08;10.23;;;;;;;13.80;100.00;102485.97;5030598;28;20065;-76
2023/10/08 07:48:09;;;;;;;19.20;10.55;;;;;;;13.85;100.00;102479.78;5057959;28;20027;-76
2023/10/08 07:50:37;;;;;;;14.52;10.30;;;;;;;13.91;100.00;102471.88;5028301;28;20032;-76
2023/10/08 07:53:04;;;;;;;15.20;10.05;;;;;;;14.05;100.00;102467.31;5062978;28;20023;-76
2023/10/08 07:55:32;;;;;;;19.55;10.90;;;;;;;14.17;100.00;102466.31;5019508;28;20034;-76
2023/10/08 07:57:58;;;;;;;21.02;9.88;;;;;;;14.31;100.00;102463.50;5033922;28;20033;-76
2023/10/08 08:00:25;;;;;;;17.88;9.65;;;;;;;14.40;100.00;102469.50;5026876;28;20034;-76
2023/10/08 08:02:53;;;;;;;18.63;10.00;;;;;;;14.54;100.00;102471.09;5025668;28;20034;-76
2023/10/08 08:05:18;;;;;;;20.33;10.23;;;;;;;14.73;100.00;102478.69;5035950;28;20105;-76
2023/10/08 08:07:49;;;;;;;18.08;10.13;;;;;;;14.91;100.00;102469.66;5024074;28;20457;-76
2023/10/08 08:10:14;;;;;;;18.23;9.20;;;;;;;15.10;100.00;102470.22;5039566;28;20052;-76
2023/10/08 08:12:40;;;;;;;16.05;9.75;;;;;;;15.28;100.00;102478.69;5023364;28;20457;-76
2023/10/08 08:15:14;;;;;;;18.33;10.32;;;;;;;15.51;100.00;102501.97;5041788;28;20553;-76
2023/10/08 08:17:47;;;;;;;18.95;10.05;;;;;;;15.62;100.00;102498.22;5015236;28;20390;-76
2023/10/08 08:20:19;;;;;;;21.88;10.00;;;;;;;15.77;100.00;102501.50;5044227;28;20373;-76
2023/10/08 08:22:53;;;;;;;20.08;10.63;;;;;;;15.89;100.00;102494.25;5016036;28;20021;-76
2023/10/08 08:25:34;;;;;;;20.50;10.63;;;;;;;16.05;100.00;102507.09;5046301;28;20026;-76
2023/10/08 08:28:00;;;;;;;19.02;10.02;;;;;;;16.17;100.00;102519.16;5018197;28;20044;-76
2023/10/08 08:30:26;;;;;;;17.92;10.38;;;;;;;16.23;100.00;102508.50;5046763;28;20393;-76
2023/10/08 08:32:52;;;;;;;18.45;10.55;;;;;;;16.34;100.00;102517.03;5015092;28;20022;-76
2023/10/08 08:35:17;;;;;;;14.85;9.85;;;;;;;16.34;100.00;102522.28;5043516;28;20039;-75
2023/10/08 08:37:43;;;;;;;16.63;10.38;;;;;;;16.28;100.00;102538.19;5025196;28;20035;-76
2023/10/08 08:40:17;;;;;;;24.60;10.88;;;;;;;16.22;100.00;102533.06;5043706;28;20113;-76
2023/10/08 08:42:44;;;;;;;;;;;;;;;16.21;100.00;102534.81;5057986;28;20029;-76
2023/10/08 08:45:13;;;;;;;21.73;11.30;;;;;;;15.94;100.00;102528.34;5020277;28;19920;-76
2023/10/08 08:47:44;;;;;;;20.15;11.43;;;;;;;15.99;100.00;102542.31;5021924;28;20061;-76
2023/10/08 08:50:10;;;;;;;19.58;12.23;;;;;;;16.07;100.00;102544.78;5020911;28;20049;-75
2023/10/08 08:52:39;;;;;;;20.88;12.55;;;;;;;16.18;100.00;102544.56;5040116;28;20036;-76
2023/10/08 08:55:14;;;;;;;28.58;14.38;;;;;;;16.21;100.00;102544.50;5029086;28;20041;-74
2023/10/08 08:57:41;;;;;;;26.08;13.75;;;;;;;16.28;100.00;102540.84;5043833;28;20108;-76
2023/10/08 09:00:10;;;;;;;26.17;14.43;;;;;;;16.39;100.00;102537.09;5029841;28;20057;-76
2023/10/08 09:02:37;;;;;;;30.73;14.88;;;;;;;16.48;100.00;102524.63;5023417;28;20061;-76
2023/10/08 09:05:13;;;;;;;22.52;13.60;;;;;;;16.56;100.00;102534.09;5022066;28;20427;-78
2023/10/08 09:08:04;;;;;;;27.05;14.75;;;;;;;16.72;100.00;102536.41;5022528;28;20112;-75
2023/10/08 09:10:36;;;;;;;27.35;14.25;;;;;;;16.85;100.00;102543.16;5019835;28;20034;-77
2023/10/08 09:13:04;;;;;;;27.98;13.90;;;;;;;16.86;100.00;102542.25;5019755;28;20025;-76
2023/10/08 09:15:32;;;;;;;23.20;14.13;;;;;;;16.96;100.00;102546.41;5025953;28;20022;-76
2023/10/08 09:18:00;;;;;;;27.58;14.15;;;;;;;17.06;100.00;102545.28;5022313;28;20124;-76
2023/10/08 09:20:27;;;;;;;27.10;14.55;;;;;;;17.23;100.00;102552.81;5040487;28;20152;-75
2023/10/08 09:23:13;;;;;;;28.38;15.32;;;;;;;17.37;100.00;102555.09;5022524;28;20503;-75
2023/10/08 09:25:40;;;;;;;32.10;14.98;;;;;;;17.38;100.00;102548.91;5020476;28;20032;-76
2023/10/08 09:28:08;;;;;;;30.58;15.30;;;;;;;17.46;100.00;102546.97;5016866;28;20049;-75
2023/10/08 09:30:38;;;;;;;23.05;14.57;;;;;;;17.55;100.00;102544.06;5027783;28;20109;-75
2023/10/08 09:33:08;;;;;;;28.60;14.80;;;;;;;17.57;100.00;102548.47;5022518;28;20028;-75
2023/10/08 09:35:34;;;;;;;30.48;15.48;;;;;;;17.63;100.00;102540.41;5047794;28;20113;-75
2023/10/08 09:38:03;;;;;;;29.55;15.23;;;;;;;17.73;100.00;102552.44;5020806;28;20029;-76
2023/10/08 09:40:29;;;;;;;26.05;15.15;;;;;;;17.81;100.00;102550.47;5035898;28;20526;-76
2023/10/08 09:42:55;;;;;;;28.00;15.63;;;;;;;17.80;100.00;102559.31;5024556;28;20078;-75
2023/10/08 09:45:21;;;;;;;24.65;14.70;;;;;;;17.74;100.00;102554.16;5024330;28;20048;-75
2023/10/08 09:47:54;;;;;;;31.35;15.70;;;;;;;17.83;100.00;102545.19;5011226;28;20121;-75
2023/10/08 09:50:29;;;;;;;35.97;16.42;;;;;;;17.91;100.00;102540.56;5013342;28;20112;-75
2023/10/08 09:53:16;;;;;;;34.03;15.57;;;;;;;17.98;100.00;102544.75;5034960;28;20034;-76
2023/10/08 09:55:50;;;;;;;25.13;16.60;;;;;;;18.05;100.00;102540.16;5015774;28;20022;-75
2023/10/08 09:58:17;;;;;;;29.70;16.08;;;;;;;18.17;100.00;102534.53;5029400;28;20390;-76
2023/10/08 10:00:44;;;;;;;33.58;18.05;;;;;;;18.33;100.00;102535.84;5016114;28;20433;-75
2023/10/08 10:03:12;;;;;;;36.65;18.17;;;;;;;18.43;100.00;102534.66;5037700;28;20027;-75
2023/10/08 10:05:38;;;;;;;34.88;17.45;;;;;;;18.47;100.00;102527.50;5019975;28;20070;-76
2023/10/08 10:08:05;;;;;;;30.88;17.42;;;;;;;18.45;100.00;102517.00;5030026;28;20057;-76
2023/10/08 10:10:34;;;;;;;24.60;16.63;;;;;;;18.45;100.00;102514.34;5040622;28;20050;-75
2023/10/08 10:13:02;;;;;;;30.50;17.75;;;;;;;18.53;100.00;102514.13;5024085;28;20029;-74
2023/10/08 10:15:30;;;;;;;33.97;16.77;;;;;;;18.68;100.00;102518.09;5037561;28;20065;-74
2023/10/08 10:17:59;;;;;;;27.55;17.15;;;;;;;18.82;100.00;102520.31;5018930;28;20018;-76
2023/10/08 10:20:25;;;;;;;36.00;18.70;;;;;;;18.94;100.00;102519.94;5008678;28;20022;-74
2023/10/08 10:22:50;;;;;;;25.20;17.20;;;;;;;18.94;100.00;102520.81;5021120;28;20025;-75
2023/10/08 10:25:17;;;;;;;25.20;17.55;;;;;;;19.18;100.00;102529.69;5040588;28;20104;-76
2023/10/08 10:28:08;;;;;;;32.10;18.33;;;;;;;19.36;100.00;102528.25;5021162;28;20426;-75
2023/10/08 10:30:34;;;;;;;28.58;17.52;;;;;;;19.33;100.00;102531.00;5025348;28;20034;-75
2023/10/08 10:33:02;;;;;;;36.67;19.60;;;;;;;19.27;100.00;102519.75;5021599;28;20142;-76
2023/10/08 10:35:28;;;;;;;25.48;17.63;;;;;;;19.37;100.00;102521.16;5036076;28;20101;-75
2023/10/08 10:37:55;;;;;;;30.83;18.73;;;;;;;19.36;100.00;102517.66;5014192;28;20573;-75
2023/10/08 10:40:29;;;;;;;31.45;19.52;;;;;;;19.44;100.00;102524.47;5015956;28;20492;-76
2023/10/08 10:43:00;;;;;;;29.98;18.58;;;;;;;19.42;100.00;102521.84;5012893;28;20074;-75
2023/10/08 10:45:42;;;;;;;26.67;18.05;;;;;;;19.49;100.00;102527.81;5024289;28;20577;-75
2023/10/08 10:48:42;;;;;;;32.50;18.90;;;;;;;19.52;100.00;102527.69;5027509;28;20482;-76
2023/10/08 10:53:56;;;;;;;29.02;19.60;;;;;;;19.67;100.00;102534.28;5016599;28;20048;-76
2023/10/08 10:56:29;;;;;;;35.50;19.00;;;;;;;19.48;100.00;102536.66;5015361;28;20030;-81
2023/10/08 10:58:59;;;;;;;34.42;19.55;;;;;;;19.28;100.00;102527.63;5014630;28;20026;-75
2023/10/08 11:01:44;;;;;;;29.85;18.58;;;;;;;19.26;100.00;102525.94;5023013;28;20074;-75
2023/10/08 11:04:15;;;;;;;30.55;20.20;;;;;;;19.29;100.00;102532.00;5007325;28;20057;-75
2023/10/08 11:06:46;;;;;;;40.53;18.88;;;;;;;19.28;100.00;102529.41;5021654;28;20029;-75
2023/10/08 11:09:35;;;;;;;32.60;18.88;;;;;;;19.08;100.00;102516.84;5036974;28;20037;-77
2023/10/08 11:12:10;;;;;;;29.48;17.80;;;;;;;18.99;100.00;102538.28;5020652;28;20087;-75
2023/10/08 11:14:42;;;;;;;31.40;16.42;;;;;;;19.06;100.00;102537.16;5038918;28;20504;-76
2023/10/08 11:17:16;;;;;;;38.08;17.10;;;;;;;19.15;100.00;102534.22;5016697;28;20035;-76
2023/10/08 11:19:45;;;;;;;35.35;17.40;;;;;;;19.08;100.00;102533.56;5028194;28;20465;-76
2023/10/08 11:22:16;;;;;;;33.72;18.35;;;;;;;18.87;100.00;102529.84;5050081;28;20027;-76
2023/10/08 11:24:44;;;;;;;35.28;17.92;;;;;;;18.63;100.00;102541.13;5042017;28;20029;-76
2023/10/08 11:27:16;;;;;;;35.40;17.23;;;;;;;18.28;100.00;102531.59;5026714;28;20057;-76
2023/10/08 11:29:47;;;;;;;33.13;17.63;;;;;;;18.08;100.00;102538.31;5044772;28;20029;-76
2023/10/08 11:32:17;;;;;;;38.75;16.58;;;;;;;18.04;100.00;102543.72;5029203;28;20104;-76
2023/10/08 11:34:45;;;;;;;25.48;15.68;;;;;;;18.07;100.00;102536.56;5044386;28;20017;-76
2023/10/08 11:37:19;;;;;;;32.70;16.80;;;;;;;18.09;100.00;102534.78;5020025;28;20025;-76
2023/10/08 11:39:48;;;;;;;28.38;16.65;;;;;;;18.17;100.00;102532.78;5008127;28;20506;-76
2023/10/08 11:44:59;;;;;;;;;;;;;;;18.46;100.00;102525.78;5031550;28;20041;-76
2023/10/08 11:47:35;;;;;;;32.17;15.15;;;;;;;18.34;100.00;102534.91;5017916;28;19916;-76
2023/10/08 11:50:10;;;;;;;31.08;16.50;;;;;;;18.29;100.00;102518.38;5080616;28;20127;-76
2023/10/08 11:52:41;;;;;;;26.80;15.43;;;;;;;18.51;100.00;102525.63;5025666;28;20033;-76
2023/10/08 11:55:18;;;;;;;24.95;14.80;;;;;;;18.68;100.00;102531.28;5018153;28;20030;-76
2023/10/08 11:57:45;;;;;;;35.20;15.63;;;;;;;18.79;100.00;102525.69;5026023;28;20065;-76
2023/10/08 12:00:19;;;;;;;27.92;14.02;;;;;;;19.16;100.00;102512.16;5037611;28;20500;-76
2023/10/08 12:02:48;;;;;;;26.95;14.02;;;;;;;19.36;100.00;102503.59;5024716;28;20161;-76
2023/10/08 12:05:22;;;;;;;24.15;14.55;;;;;;;19.46;100.00;102499.72;5019923;28;20110;-76
2023/10/08 12:07:50;;;;;;;28.83;13.73;;;;;;;19.71;100.00;102499.72;5018474;28;20037;-76
2023/10/08 12:10:21;;;;;;;22.08;13.35;;;;;;;19.94;100.00;102492.75;5042047;28;20031;-75
2023/10/08 12:12:52;;;;;;;28.30;14.73;;;;;;;19.81;100.00;102495.81;5006356;28;20041;-77
2023/10/08 12:15:34;;;;;;;24.40;14.93;;;;;;;19.66;100.00;102488.47;5033119;28;20041;-77
2023/10/08 12:18:13;;;;;;;24.52;14.25;;;;;;;19.52;100.00;102496.84;5018890;28;20026;-78
2023/10/08 12:20:38;;;;;;;28.05;14.30;;;;;;;19.31;100.00;102487.84;5032929;28;20110;-78
2023/10/08 12:23:10;;;;;;;25.38;15.18;;;;;;;19.19;100.00;102493.56;5022257;28;20106;-78
2023/10/08 12:25:39;;;;;;;25.15;14.40;;;;;;;19.04;100.00;102484.38;5038043;28;20062;-78